createdAt,value
2019-01-19T08:48:51.705Z,59.84
2019-01-19T08:51:20.858Z,57.69
2019-01-19T08:53:49.907Z,56.83
2019-01-19T08:56:19.601Z,56.46
2019-01-19T08:58:48.162Z,55.78
2019-01-19T09:01:16.542Z,55.27
2019-01-19T09:03:44.701Z,55.04
2019-01-19T09:06:12.725Z,54.99
2019-01-19T09:08:41.113Z,54.92
2019-01-19T09:11:09.169Z,54.28
2019-01-19T09:13:37.525Z,54.43
2019-01-19T09:16:23.975Z,54.25
2019-01-19T09:18:52.008Z,54.29
2019-01-19T09:21:20.031Z,54.12
2019-01-19T09:23:58.139Z,53.85
2019-01-19T09:26:26.393Z,54.00
2019-01-19T09:28:54.512Z,53.81
2019-01-19T09:31:22.574Z,53.37
2019-01-19T09:33:50.601Z,53.58
2019-01-19T09:36:19.064Z,53.57
2019-01-19T09:38:47.654Z,53.54
2019-01-19T09:41:16.022Z,53.14
2019-01-19T09:43:44.150Z,52.94
2019-01-19T09:46:12.233Z,53.00
2019-01-19T09:48:40.884Z,52.87
2019-01-19T09:51:08.930Z,52.88
2019-01-19T09:53:37.331Z,53.07
2019-01-19T09:56:05.507Z,52.84
2019-01-19T09:58:34.171Z,52.51
2019-01-19T10:01:02.589Z,52.78
2019-01-19T10:03:30.949Z,52.35
2019-01-19T10:05:58.945Z,52.41
2019-01-19T10:08:26.996Z,52.03
2019-01-19T10:10:55.270Z,51.57
2019-01-19T10:13:23.522Z,51.68
2019-01-19T10:15:51.805Z,51.22
2019-01-19T10:18:20.031Z,51.12
2019-01-19T10:20:48.068Z,51.35
2019-01-19T10:23:16.543Z,50.67
2019-01-19T10:25:45.768Z,49.77
2019-01-19T10:28:14.118Z,50.88
2019-01-19T10:30:42.385Z,48.89
2019-01-19T10:33:10.520Z,50.55
2019-01-19T10:35:39.462Z,50.29
2019-01-19T10:38:07.601Z,50.49
2019-01-19T10:40:35.877Z,50.21
2019-01-19T10:43:04.235Z,50.70
2019-01-19T10:45:32.253Z,50.46
2019-01-19T10:48:00.653Z,50.67
2019-01-19T10:50:29.350Z,48.59
2019-01-19T10:52:57.629Z,49.12
2019-01-19T10:55:25.690Z,49.88
2019-01-19T10:57:54.588Z,48.84
2019-01-19T11:00:23.833Z,49.62
2019-01-19T11:02:51.837Z,49.40
2019-01-19T11:05:20.241Z,50.21
2019-01-19T11:07:49.089Z,50.26
2019-01-19T11:10:18.495Z,49.86
2019-01-19T11:12:46.793Z,49.93
2019-01-19T11:15:15.613Z,49.59
2019-01-19T11:17:43.976Z,49.92
2019-01-19T11:20:14.093Z,49.33
2019-01-19T11:22:42.597Z,49.97
2019-01-19T11:25:11.318Z,49.78
2019-01-19T11:27:39.477Z,49.03
2019-01-19T11:30:10.319Z,49.47
2019-01-19T11:32:44.394Z,51.35
2019-01-19T11:35:08.897Z,51.80
2019-01-19T11:37:37.012Z,49.46
2019-01-19T11:40:07.076Z,48.73
2019-01-19T11:42:35.229Z,51.46
2019-01-19T11:45:03.285Z,48.31
2019-01-19T11:47:31.321Z,49.00
2019-01-19T11:49:59.728Z,49.35
2019-01-19T11:52:27.717Z,49.37
2019-01-19T11:54:56.170Z,50.38
2019-01-19T11:57:24.532Z,53.20
2019-01-19T11:59:53.189Z,51.96
2019-01-19T12:02:21.563Z,50.31
2019-01-19T12:04:49.941Z,51.96
2019-01-19T12:07:18.499Z,49.72
2019-01-19T12:09:47.213Z,49.33
2019-01-19T12:12:15.241Z,48.47
2019-01-19T12:14:43.580Z,49.11
2019-01-19T12:17:12.259Z,47.80
2019-01-19T12:19:40.404Z,48.53
2019-01-19T12:22:08.458Z,49.24
2019-01-19T12:24:36.595Z,49.80
2019-01-19T12:27:04.996Z,50.11
2019-01-19T12:29:33.334Z,50.38
2019-01-19T12:32:01.346Z,50.56
2019-01-19T12:34:29.787Z,50.01
2019-01-19T12:36:58.734Z,50.40
2019-01-19T12:39:26.809Z,49.52
2019-01-19T12:41:55.130Z,51.41
2019-01-19T12:44:23.817Z,52.15
2019-01-19T12:46:52.136Z,51.97
2019-01-19T12:49:20.161Z,53.36
2019-01-19T12:51:48.528Z,52.76
2019-01-19T12:54:16.537Z,53.10
2019-01-19T12:56:44.964Z,52.46
2019-01-19T12:59:12.975Z,51.94
2019-01-19T13:01:41.098Z,51.11
2019-01-19T13:04:09.098Z,52.20
2019-01-19T13:06:39.601Z,52.08
